This is the latest recevied weather packets stored in our database for station/object OM1PU-6. If no packets are shown the sender has not sent any weather packets the latest 10 day(s).
| Time | Temp. | Humidity | Pressure | Rain* | Wind** | Luminosity | Snow |
|---|---|---|---|---|---|---|---|
| 1777618994 | 17.22° C | 37% | 1039.9 hPa | 0 mm | - | - | - |
| 1777618094 | 13.89° C | 45% | 1040.1 hPa | 0 mm | - | - | - |
| 1777617195 | 11.11° C | 52% | 1039.9 hPa | 0 mm | - | - | - |
| 1777616295 | 10.56° C | 53% | 1039.9 hPa | 0 mm | - | - | - |
| 1777615394 | 9.44° C | 58% | 1039.7 hPa | 0 mm | - | - | - |
| 1777614494 | 8.33° C | 59% | 1039.7 hPa | 0 mm | - | - | - |
| 1777613594 | 7.78° C | 60% | 1040 hPa | 0 mm | - | - | - |
| 1777612695 | 7.22° C | 63% | 1039.9 hPa | 0 mm | - | - | - |
| 1777611794 | 6.67° C | 63% | 1039.6 hPa | 0 mm | - | - | - |
| 1777610894 | 6.11° C | 66% | 1039.8 hPa | 0 mm | - | - | - |
| 1777609994 | 5.56° C | 67% | 1039.3 hPa | 0 mm | - | - | - |
| 1777609094 | 5° C | 70% | 1039.6 hPa | 0 mm | - | - | - |
| 1777608194 | 4.44° C | 69% | 1039.3 hPa | 0 mm | - | - | - |
| 1777607294 | 5° C | 68% | 1039.5 hPa | 0 mm | - | - | - |
| 1777606394 | 5.56° C | 65% | 1039.4 hPa | 0 mm | - | - | - |
| 1777605494 | 6.11° C | 63% | 1039.2 hPa | 0 mm | - | - | - |
| 1777604594 | 6.67° C | 63% | 1039.1 hPa | 0 mm | - | - | - |
| 1777603695 | 7.22° C | 59% | 1039.2 hPa | 0 mm | - | - | - |
| 1777602794 | 6.67° C | 59% | 1039.2 hPa | 0 mm | - | - | - |
| 1777601894 | 6.67° C | 59% | 1039 hPa | 0 mm | - | - | - |
| 1777600994 | 6.11° C | 59% | 1039.1 hPa | 0 mm | - | - | - |
| 1777600094 | 6.67° C | 57% | 1039.3 hPa | 0 mm | - | - | - |
| 1777599195 | 6.11° C | 57% | 1039.2 hPa | 0 mm | - | - | - |
| 1777598294 | 6.11° C | 59% | 1039.2 hPa | 0 mm | - | - | - |
| 1777597394 | 6.11° C | 58% | 1039 hPa | 0 mm | - | - | - |
* Rain latest 24 hours (hover to see other rain measurements)
** Current wind speed in m/s (hover to see current wind gust speed)